Elko, MN (55020)

8:03 PM CDT on September 30, 2014 (GMT -0500)
The Farm II | Change Station
CLOSE
Current Station
Personal Weather Station
Location: Elko New Market, MN
Elevation: 1145 ft
Nearby Weather Stations

Elev 1145 ft 44.57 °N, 93.35 °W | Updated 3 minutes ago

Partly Cloudy
Partly Cloudy
53.2 °F
Feels Like 53.2 °F
N
7.6
Wind Variable Wind from SE
Gusts 8.3 mph

Today
High -- | Low -- °F
--% Chance of Precip.
Yesterday
High -- | Low -- °F
Precip. -- in
7:10 AM 6:55 PM
Waxing Crescent, 42% visible
Pressure 29.92 in
Visibility 7.0 miles
Clouds Scattered Clouds 2500 ft
Scattered Clouds 5500 ft
Scattered Clouds 9500 ft
Dew Point 46 °F
Humidity 77%
Rainfall 0.00 in
Snow Depth Not available.
UV 0 out of 12
Pollen .90 out of 12
Ozone Good
PM2.5 Good
Flu Activity Not available.
METAR KLVN 010049Z AUTO 12004KT 7SM SCT025 SCT055 SCT095 11/07 A2992 RMK AO2

More Conditions Fewer Conditions

Pressure 29.92 in
Visibility 7.0 miles
Clouds Scattered Clouds 2500 ft
Scattered Clouds 5500 ft
Scattered Clouds 9500 ft
Dew Point 46 °F
Humidity 77%
Rainfall 0.00 in
Snow Depth Not available.
UV 0 out of 12
Pollen .90 out of 12
Ozone Good
PM2.5 Good
Flu Activity Not available.
METAR KLVN 010049Z AUTO 12004KT 7SM SCT025 SCT055 SCT095 11/07 A2992 RMK AO2

More Conditions Fewer Conditions

10-Day Weather Forecast

Almanac

Astronomy

Sep. 30, 2014 Rise Set
Actual Time 7:10 AM CDT 6:55 PM CDT
Civil Twilight 6:41 AM CDT 7:24 PM CDT
Nautical Twilight 6:07 AM CDT 7:58 PM CDT
Astronomical Twilight 5:32 AM CDT 8:32 PM CDT
Moon 1:29 PM CDT (9/30) 11:16 PM CDT (9/30)
Length of Visible Light 12h 43m
Length of Day
11h 45m
Tomorrow will be 3m 5s shorter.
Waxing Crescent, 42% of the Moon is Illuminated
Today
Waxing Crescent
Oct 1
First Quarter
Oct 8
Full
Oct 15
Last Quarter
Oct 23
New

Today's Extremes

State Highs State Lows

Community

WunderPhotos

Upload Photos

1,757,805 photos uploaded!

Nearby

Air Quality

  Air Quality AQ Index Pollutant
Yesterday Good
PM2.5
Yesterday Good
OZONE
Current Good
PM2.5
Current Good
OZONE
Tuesday Good
OZONE
Tuesday Good
PM2.5
Wednesday Good
PM2.5
Wednesday Good
OZONE
Thursday Good
OZONE
Thursday Good
PM2.5
Friday Good
OZONE
Friday Good
PM2.5
Saturday Good
OZONE
Saturday Good
PM2.5
Sunday Good
OZONE
Sunday Good
PM2.5

Snow Depth

Station Depth Elevation
No new snow has been reported.

Earthquake Activity

City Distance Mag. Time & Date
No recent earthquake activity has been reported nearby.
Minimum magnitude displayed is 2.5.

Coastal Water Temperatures

Place Temperature
No Stations Reporting

Nearby Weather Stations